createdAt,value
2019-04-23T00:01:16.488Z,76.00
2019-04-23T00:03:47.598Z,75.90
2019-04-23T00:06:18.463Z,75.10
2019-04-23T00:11:31.300Z,75.00
2019-04-23T00:14:02.746Z,75.30
2019-04-23T00:16:30.239Z,75.50
2019-04-23T00:18:55.867Z,75.10
2019-04-23T00:21:42.429Z,74.60
2019-04-23T00:24:21.335Z,74.30
2019-04-23T00:26:52.117Z,74.40
2019-04-23T00:29:21.108Z,74.20
2019-04-23T00:31:49.920Z,73.70
2019-04-23T00:34:38.066Z,73.90
2019-04-23T00:37:09.860Z,73.70
2019-04-23T00:39:33.878Z,73.20
2019-04-23T00:42:08.606Z,73.20
2019-04-23T00:44:45.935Z,73.00
2019-04-23T00:47:20.910Z,72.80
2019-04-23T00:49:57.631Z,72.90
2019-04-23T00:52:28.458Z,72.90
2019-04-23T00:55:07.657Z,72.50
2019-04-23T00:57:35.991Z,72.20
2019-04-23T01:00:15.568Z,71.90
2019-04-23T01:02:36.976Z,72.00
2019-04-23T01:05:10.342Z,71.80
2019-04-23T01:07:45.714Z,71.30
2019-04-23T01:12:54.348Z,70.60
2019-04-23T01:15:25.757Z,70.60
2019-04-23T01:18:02.308Z,70.60
2019-04-23T01:20:39.055Z,70.30
2019-04-23T01:22:46.324Z,70.20
2019-04-23T01:25:28.694Z,70.40
2019-04-23T01:28:25.338Z,70.10
2019-04-23T01:30:57.411Z,70.40
2019-04-23T01:33:35.838Z,70.00
2019-04-23T01:36:10.945Z,69.60
2019-04-23T01:41:09.270Z,69.20
2019-04-23T01:43:41.002Z,69.20
2019-04-23T01:46:12.852Z,68.80
2019-04-23T01:48:48.292Z,68.40
2019-04-23T01:51:20.209Z,67.80
2019-04-23T01:53:49.774Z,67.30
2019-04-23T01:56:25.979Z,67.50
2019-04-23T02:01:36.745Z,67.30
2019-04-23T02:04:15.245Z,66.60
2019-04-23T02:06:39.090Z,67.00
2019-04-23T02:09:12.661Z,66.90
2019-04-23T02:11:45.557Z,67.60
2019-04-23T02:14:26.729Z,67.60
2019-04-23T02:16:49.950Z,67.20
2019-04-23T02:22:01.271Z,67.50
2019-04-23T02:27:16.473Z,67.30
2019-04-23T02:29:51.518Z,67.30
2019-04-23T02:32:19.056Z,67.30
2019-04-23T02:34:57.743Z,66.70
2019-04-23T02:37:40.876Z,66.90
2019-04-23T02:45:02.776Z,66.30
2019-04-23T02:47:44.018Z,66.20
2019-04-23T02:50:34.951Z,66.50
2019-04-23T02:57:50.091Z,66.10
2019-04-23T03:00:28.106Z,66.20
2019-04-23T03:03:01.972Z,66.00
2019-04-23T03:05:44.191Z,66.10
2019-04-23T03:08:02.196Z,65.60
2019-04-23T03:13:21.655Z,65.50
2019-04-23T03:18:35.283Z,63.40
2019-04-23T03:21:05.798Z,64.10
2019-04-23T03:23:32.078Z,63.90
2019-04-23T03:26:13.762Z,64.20
2019-04-23T03:33:04.080Z,64.90
2019-04-23T03:38:51.714Z,63.60
2019-04-23T03:49:07.661Z,61.60
2019-04-23T03:54:21.812Z,62.30
2019-04-23T03:59:20.170Z,61.90
2019-04-23T04:01:46.386Z,60.90
2019-04-23T04:07:15.315Z,61.60
2019-04-23T04:09:34.159Z,61.30
2019-04-23T04:12:00.982Z,61.80
2019-04-23T04:17:12.462Z,60.80
2019-04-23T04:19:39.993Z,60.30
2019-04-23T04:22:23.840Z,60.50
2019-04-23T04:24:40.165Z,60.90
2019-04-23T04:27:33.970Z,60.90
2019-04-23T04:29:56.940Z,60.10
2019-04-23T04:42:37.075Z,60.00
2019-04-23T04:47:41.774Z,59.60
2019-04-23T04:50:04.755Z,59.60
2019-04-23T04:53:00.679Z,59.70
2019-04-23T04:55:37.617Z,59.70
2019-04-23T04:58:03.021Z,59.40
2019-04-23T05:00:39.793Z,58.90
2019-04-23T05:03:14.844Z,58.70
2019-04-23T05:08:07.383Z,58.30
2019-04-23T05:10:44.157Z,58.30
2019-04-23T05:15:44.901Z,58.10
2019-04-23T05:18:23.428Z,57.70
2019-04-23T05:21:06.151Z,57.80
2019-04-23T05:25:58.015Z,57.60
2019-04-23T05:28:36.661Z,57.40
2019-04-23T05:31:08.665Z,57.10
2019-04-23T05:33:57.198Z,56.70
2019-04-23T05:39:01.601Z,56.90
2019-04-23T05:41:17.206Z,56.80
2019-04-23T05:43:50.631Z,56.80
2019-04-23T05:46:31.917Z,57.00
2019-04-23T05:48:58.267Z,57.10
2019-04-23T05:51:31.231Z,56.80
2019-04-23T05:53:58.391Z,57.00
2019-04-23T05:56:32.450Z,57.20
2019-04-23T05:59:09.691Z,57.50
2019-04-23T06:06:54.164Z,55.90
2019-04-23T06:09:23.612Z,56.30
2019-04-23T06:14:24.952Z,56.00
2019-04-23T06:16:57.657Z,55.70
2019-04-23T06:19:24.609Z,55.80
2019-04-23T06:22:16.233Z,56.00
2019-04-23T06:24:34.317Z,56.00
2019-04-23T06:27:13.506Z,55.70
2019-04-23T06:29:39.435Z,55.50
2019-04-23T06:32:14.379Z,55.70
2019-04-23T06:34:50.097Z,55.50
2019-04-23T06:37:36.157Z,55.20
2019-04-23T06:39:55.457Z,55.60
2019-04-23T06:42:27.876Z,54.50
2019-04-23T06:44:59.961Z,54.90
2019-04-23T06:47:32.701Z,54.50
2019-04-23T06:50:23.956Z,54.20
2019-04-23T06:52:29.183Z,54.50
2019-04-23T06:55:30.228Z,54.40
2019-04-23T06:57:48.165Z,54.60
2019-04-23T07:00:25.883Z,54.90
2019-04-23T07:02:55.264Z,54.60
2019-04-23T07:05:23.828Z,54.80
2019-04-23T07:07:59.514Z,54.00
2019-04-23T07:10:36.259Z,53.60
2019-04-23T07:13:03.175Z,53.80
2019-04-23T07:15:49.642Z,54.10
2019-04-23T07:18:07.563Z,54.50
2019-04-23T07:20:46.494Z,54.80
2019-04-23T07:23:26.045Z,54.00
2019-04-23T07:25:49.956Z,54.40
2019-04-23T07:28:19.964Z,54.30
2019-04-23T07:30:55.856Z,54.20
2019-04-23T07:33:19.097Z,54.00
2019-04-23T07:35:55.940Z,54.10
2019-04-23T07:38:33.090Z,53.90
2019-04-23T07:40:46.955Z,53.60
2019-04-23T07:43:26.473Z,53.60
2019-04-23T07:46:02.342Z,53.20
2019-04-23T07:48:37.169Z,53.50
2019-04-23T07:50:52.034Z,53.10
2019-04-23T07:53:22.871Z,53.70
2019-04-23T08:00:57.112Z,54.30
2019-04-23T08:03:31.297Z,53.70
2019-04-23T08:06:01.040Z,53.30
2019-04-23T08:08:31.829Z,53.90
2019-04-23T08:11:23.417Z,52.90
2019-04-23T08:13:41.931Z,53.50
2019-04-23T08:16:21.835Z,53.50
2019-04-23T08:18:48.059Z,53.50
2019-04-23T08:21:10.120Z,53.90
2019-04-23T08:23:44.016Z,53.10
2019-04-23T08:26:23.870Z,53.10
2019-04-23T08:28:48.838Z,52.50
2019-04-23T08:31:16.524Z,52.70
2019-04-23T08:33:52.999Z,53.30
2019-04-23T08:38:43.584Z,53.30
2019-04-23T08:41:36.051Z,53.60
2019-04-23T08:46:26.905Z,53.60
2019-04-23T08:48:55.986Z,53.70
2019-04-23T08:51:31.485Z,53.90
2019-04-23T08:53:50.024Z,53.90
2019-04-23T08:56:27.164Z,54.10
2019-04-23T08:58:47.369Z,54.30
2019-04-23T09:01:48.092Z,54.30
2019-04-23T09:03:46.071Z,54.60
2019-04-23T09:06:24.487Z,54.40
2019-04-23T09:08:49.614Z,54.50
2019-04-23T09:12:31.572Z,54.80
2019-04-23T09:16:29.258Z,54.90
2019-04-23T09:19:02.823Z,54.50
2019-04-23T09:21:29.270Z,55.10
2019-04-23T09:24:00.699Z,55.20
2019-04-23T09:26:30.218Z,54.80
2019-04-23T09:34:07.936Z,54.40
2019-04-23T09:36:36.824Z,54.20
2019-04-23T09:39:10.073Z,54.20
2019-04-23T09:41:31.441Z,54.00
2019-04-23T09:46:44.284Z,54.10
2019-04-23T09:49:20.643Z,54.30
2019-04-23T09:51:51.195Z,54.30
2019-04-23T10:01:50.130Z,54.30
2019-04-23T10:04:17.112Z,54.50
2019-04-23T10:06:38.725Z,54.50
2019-04-23T10:09:10.591Z,54.60
2019-04-23T10:11:42.972Z,54.70
2019-04-23T10:14:14.695Z,55.00
2019-04-23T10:16:47.223Z,54.10
2019-04-23T10:19:19.016Z,54.30
2019-04-23T10:21:51.253Z,54.10
2019-04-23T10:24:23.322Z,53.80
2019-04-23T10:26:55.699Z,53.90
2019-04-23T10:29:28.042Z,53.60
2019-04-23T10:31:59.706Z,53.60
2019-04-23T10:34:42.238Z,53.70
2019-04-23T10:37:03.044Z,53.90
2019-04-23T10:39:37.754Z,54.10
2019-04-23T10:42:07.931Z,54.20
2019-04-23T10:44:41.365Z,54.20
2019-04-23T10:47:37.104Z,54.40
2019-04-23T10:50:16.989Z,54.60
2019-04-23T10:52:50.140Z,54.70
2019-04-23T10:55:27.913Z,54.80
2019-04-23T10:57:45.967Z,54.90
2019-04-23T11:00:23.823Z,55.00
2019-04-23T11:02:58.868Z,55.10
2019-04-23T11:05:42.979Z,55.20
2019-04-23T11:08:08.036Z,55.30
2019-04-23T11:10:32.853Z,55.40
2019-04-23T11:13:11.330Z,55.50
2019-04-23T11:16:00.260Z,55.80
2019-04-23T11:18:09.074Z,55.90
2019-04-23T11:21:06.082Z,56.00
2019-04-23T11:23:27.330Z,55.90
2019-04-23T11:25:48.719Z,55.80
2019-04-23T11:28:28.120Z,55.90
2019-04-23T11:30:56.780Z,56.00
2019-04-23T11:33:50.904Z,56.00
2019-04-23T11:36:35.665Z,56.00
2019-04-23T11:41:19.304Z,56.30
2019-04-23T11:43:42.415Z,56.50
2019-04-23T11:46:32.561Z,56.70
2019-04-23T11:49:22.354Z,56.60
2019-04-23T11:51:47.510Z,56.80
2019-04-23T11:53:57.018Z,56.90
2019-04-23T11:58:59.778Z,57.20
2019-04-23T12:01:42.256Z,57.30
2019-04-23T12:04:14.087Z,57.40
2019-04-23T12:06:39.065Z,57.70
2019-04-23T12:09:17.681Z,57.60
2019-04-23T12:11:52.799Z,57.80
2019-04-23T12:14:29.152Z,57.80
2019-04-23T12:17:03.296Z,57.90
2019-04-23T12:22:01.183Z,58.20
2019-04-23T12:29:37.350Z,58.30
2019-04-23T12:32:24.160Z,58.60
2019-04-23T12:34:52.572Z,58.60
2019-04-23T12:37:32.725Z,58.60
2019-04-23T12:40:00.495Z,58.70
2019-04-23T12:45:06.308Z,58.80
2019-04-23T12:47:43.756Z,58.80
2019-04-23T12:57:46.851Z,59.20
2019-04-23T13:00:23.203Z,59.20
2019-04-23T13:02:52.693Z,59.20
2019-04-23T13:05:31.491Z,59.30
2019-04-23T13:08:23.351Z,59.40
2019-04-23T13:13:09.288Z,59.50
2019-04-23T13:15:34.290Z,59.40
2019-04-23T13:18:15.440Z,59.60
2019-04-23T13:23:16.901Z,60.00
2019-04-23T13:30:59.388Z,60.10
2019-04-23T13:36:08.437Z,60.90
2019-04-23T13:41:17.184Z,61.40
2019-04-23T13:43:47.894Z,61.60
2019-04-23T13:46:13.297Z,61.80
2019-04-23T13:48:42.366Z,61.90
2019-04-23T13:51:34.178Z,62.10
2019-04-23T13:54:08.223Z,62.60
2019-04-23T13:59:07.001Z,62.80
2019-04-23T14:01:35.566Z,63.00
2019-04-23T14:04:11.852Z,63.10
2019-04-23T14:06:46.450Z,63.50
2019-04-23T14:09:20.414Z,63.40
2019-04-23T14:11:43.438Z,63.40
2019-04-23T14:14:36.207Z,63.70
2019-04-23T14:19:28.026Z,63.70
2019-04-23T14:22:21.191Z,63.80
2019-04-23T14:24:46.213Z,63.80
2019-04-23T14:27:14.919Z,63.80
2019-04-23T14:29:48.247Z,64.20
2019-04-23T14:32:29.460Z,64.10
2019-04-23T14:37:22.148Z,64.30
2019-04-23T14:40:01.561Z,65.10
2019-04-23T14:42:44.887Z,64.30
2019-04-23T14:45:24.953Z,64.60
2019-04-23T14:47:46.370Z,64.60
2019-04-23T14:50:27.927Z,64.60
2019-04-23T14:52:50.516Z,64.60
2019-04-23T14:58:00.948Z,65.20
2019-04-23T15:00:31.477Z,65.40
2019-04-23T15:03:02.449Z,65.50
2019-04-23T15:05:36.198Z,65.50
2019-04-23T15:08:07.519Z,65.90
2019-04-23T15:10:41.667Z,66.00
2019-04-23T15:13:21.340Z,65.90
2019-04-23T15:15:53.224Z,66.10
2019-04-23T15:18:24.480Z,66.10
2019-04-23T15:21:08.563Z,66.50
2019-04-23T15:26:55.307Z,66.90
2019-04-23T15:28:08.871Z,66.70
2019-04-23T15:31:15.402Z,66.90
2019-04-23T15:33:49.161Z,66.80
2019-04-23T15:43:57.413Z,67.90
2019-04-23T15:46:25.226Z,68.10
2019-04-23T15:54:06.750Z,67.60
2019-04-23T15:56:45.195Z,67.60
2019-04-23T15:59:31.282Z,67.70
2019-04-23T16:03:49.083Z,68.10
2019-04-23T16:06:22.975Z,68.10
2019-04-23T16:09:12.696Z,68.20
2019-04-23T16:11:48.005Z,68.50
2019-04-23T16:17:04.062Z,68.80
2019-04-23T16:19:33.889Z,68.60
2019-04-23T16:22:20.285Z,68.50
2019-04-23T16:24:42.806Z,68.70
2019-04-23T16:27:13.821Z,68.70
2019-04-23T16:30:06.133Z,68.80
2019-04-23T16:32:27.732Z,68.70
2019-04-23T16:35:03.223Z,69.70
2019-04-23T16:37:27.125Z,68.80
2019-04-23T16:40:08.102Z,69.00
2019-04-23T16:42:38.186Z,69.30
2019-04-23T16:45:12.361Z,69.10
2019-04-23T16:47:43.719Z,69.00
2019-04-23T16:50:17.853Z,69.10
2019-04-23T16:52:49.312Z,69.30
2019-04-23T16:55:17.339Z,69.20
2019-04-23T16:58:01.672Z,69.50
2019-04-23T17:03:06.797Z,69.40
2019-04-23T17:05:31.056Z,69.50
2019-04-23T17:08:30.971Z,69.40
2019-04-23T17:10:46.754Z,70.10
2019-04-23T17:13:14.229Z,69.80
2019-04-23T17:15:58.065Z,70.30
2019-04-23T17:18:26.261Z,70.10
2019-04-23T17:20:50.591Z,70.00
2019-04-23T17:23:40.166Z,70.10
2019-04-23T17:26:02.718Z,70.40
2019-04-23T17:28:33.448Z,70.40
2019-04-23T17:31:34.300Z,70.50
2019-04-23T17:33:43.462Z,70.30
2019-04-23T17:41:38.883Z,70.50
2019-04-23T17:44:20.318Z,70.70
2019-04-23T17:46:32.401Z,70.70
2019-04-23T17:49:06.146Z,70.80
2019-04-23T17:51:31.067Z,70.70
2019-04-23T17:54:10.862Z,70.70
2019-04-23T17:59:22.802Z,70.70
2019-04-23T18:02:08.015Z,70.60
2019-04-23T18:04:27.512Z,70.60
2019-04-23T18:06:58.423Z,70.90
2019-04-23T18:09:27.820Z,70.80
2019-04-23T18:12:19.714Z,70.70
2019-04-23T18:14:28.268Z,70.70
2019-04-23T18:17:13.533Z,70.70
2019-04-23T18:19:39.520Z,71.10
2019-04-23T18:22:22.250Z,71.20
2019-04-23T18:24:50.238Z,71.50
2019-04-23T18:30:00.765Z,71.60
2019-04-23T18:32:32.795Z,71.50
2019-04-23T18:35:15.460Z,71.40
2019-04-23T18:37:34.429Z,71.40
2019-04-23T18:40:04.296Z,71.30
2019-04-23T18:43:08.778Z,71.50
2019-04-23T18:45:22.836Z,71.70
2019-04-23T18:47:49.064Z,72.90
2019-04-23T18:50:32.751Z,72.00
2019-04-23T18:53:04.585Z,72.10
2019-04-23T18:55:58.924Z,72.00
2019-04-23T18:58:24.793Z,71.80
2019-04-23T19:03:10.535Z,72.30
2019-04-23T19:05:47.484Z,72.80
2019-04-23T19:08:36.099Z,73.00
2019-04-23T19:10:50.914Z,73.20
2019-04-23T19:13:26.860Z,73.00
2019-04-23T19:15:59.720Z,73.10
2019-04-23T19:18:38.290Z,72.90
2019-04-23T19:21:08.977Z,72.90
2019-04-23T19:23:47.248Z,73.30
2019-04-23T19:26:23.069Z,73.10
2019-04-23T19:28:48.402Z,73.50
2019-04-23T19:33:53.464Z,73.60
2019-04-23T19:36:26.196Z,73.60
2019-04-23T19:39:03.264Z,73.30
2019-04-23T19:41:47.560Z,73.70
2019-04-23T19:44:08.369Z,73.90
2019-04-23T19:46:49.124Z,73.70
2019-04-23T19:49:13.776Z,73.90
2019-04-23T19:51:48.257Z,74.90
2019-04-23T19:56:55.265Z,75.50
2019-04-23T19:59:31.578Z,75.40
2019-04-23T20:02:00.436Z,75.70
2019-04-23T20:04:28.901Z,75.90
2019-04-23T20:07:16.015Z,76.00
2019-04-23T20:09:43.803Z,76.20
2019-04-23T20:13:02.118Z,76.20
2019-04-23T20:15:53.450Z,76.40
2019-04-23T20:17:58.799Z,76.80
2019-04-23T20:20:52.711Z,76.40
2019-04-23T20:23:26.000Z,76.10
2019-04-23T20:28:49.361Z,76.00
2019-04-23T20:31:16.207Z,76.10
2019-04-23T20:36:05.554Z,75.80
2019-04-23T20:38:48.611Z,75.90
2019-04-23T20:41:15.342Z,75.80
2019-04-23T20:43:49.167Z,75.80
2019-04-23T20:46:14.811Z,76.00
2019-04-23T20:51:24.737Z,76.40
2019-04-23T20:54:02.317Z,76.50
2019-04-23T20:56:34.507Z,76.80
2019-04-23T20:59:03.246Z,76.60
2019-04-23T21:01:38.633Z,76.70
2019-04-23T21:04:37.560Z,76.70
2019-04-23T21:06:48.905Z,77.00
2019-04-23T21:12:06.689Z,77.20
2019-04-23T21:16:56.081Z,77.80
2019-04-23T21:19:36.659Z,77.90
2019-04-23T21:22:06.037Z,78.10
2019-04-23T21:24:42.323Z,77.80
2019-04-23T21:27:18.162Z,77.90
2019-04-23T21:29:53.595Z,78.10
2019-04-23T21:32:24.795Z,78.30
2019-04-23T21:35:01.723Z,78.20
2019-04-23T21:37:23.372Z,78.30
2019-04-23T21:42:42.738Z,77.70
2019-04-23T21:45:06.441Z,77.80
2019-04-23T21:47:48.361Z,77.90
2019-04-23T21:50:19.791Z,78.00
2019-04-23T21:52:49.060Z,77.70
2019-04-23T21:55:20.823Z,77.90
2019-04-23T21:57:59.617Z,77.70
2019-04-23T22:00:26.188Z,77.60
2019-04-23T22:03:06.797Z,77.40
2019-04-23T22:05:32.565Z,77.40
2019-04-23T22:08:02.485Z,77.20
2019-04-23T22:10:45.865Z,77.20
2019-04-23T22:16:47.021Z,77.70
2019-04-23T22:18:16.149Z,77.70
2019-04-23T22:23:30.556Z,77.80
2019-04-23T22:26:16.867Z,78.20
2019-04-23T22:28:43.446Z,78.10
2019-04-23T22:31:12.483Z,78.40
2019-04-23T22:36:11.302Z,78.10
2019-04-23T22:38:45.215Z,77.80
2019-04-23T22:41:16.219Z,77.40
2019-04-23T22:43:57.212Z,77.70
2019-04-23T22:46:27.862Z,77.60
2019-04-23T22:49:07.822Z,77.80
2019-04-23T22:51:28.994Z,78.10
2019-04-23T22:56:35.588Z,78.10
2019-04-23T22:59:24.576Z,77.80
2019-04-23T23:01:51.291Z,77.20
2019-04-23T23:04:24.084Z,77.00
2019-04-23T23:06:57.615Z,76.70
2019-04-23T23:11:54.280Z,76.50
2019-04-23T23:16:58.432Z,75.90
2019-04-23T23:19:40.424Z,75.80
2019-04-23T23:24:37.621Z,74.50
2019-04-23T23:27:05.556Z,74.50
2019-04-23T23:29:49.396Z,74.50
2019-04-23T23:32:23.015Z,74.50
2019-04-23T23:37:19.044Z,74.10
2019-04-23T23:40:04.992Z,74.30
2019-04-23T23:45:10.228Z,74.40
2019-04-23T23:47:39.340Z,74.80
2019-04-23T23:52:51.671Z,73.90
2019-04-23T23:55:15.765Z,74.20
2019-04-23T23:57:51.126Z,74.40
